Aérodrome :
LOGIN :

S'inscrire | Disclaimer

   EN    FR    IT 

 










Légende :    VFR   VFR Marginal   IFR   IFR Intensif   IFR Très Intensif
Visi : 
Plafond : 
>= 8 km
>= 3000ft
5 à 8 km
1000 à 3000 ft
1500m à 5 km
500 à 1000 ft
800 à 1500m
200 à 500 ft
< 800m
< 200 ft
Symboles :   Orages  Brouillard  Fortes neiges  Fortes précipitations  Vent > 20 kt
SIGMETs :   Divers  Orages  Givrage  Turbulence  Onde Orograph.  Cendres Volcan.







- Altitude de l'aérodrome : 423 ft
- Code IATA : PIS
- Voir les cartes d'approche


LFBI - Poitiers

DERNIER METAR :
  • 211000Z AUTO VRB03KT CAVOK 24/10 Q1023 NOSIG

METARs EXPIRÉS :
  • 210930Z AUTO VRB02KT CAVOK 24/10 Q1023 NOSIG
  • 210900Z AUTO VRB01KT CAVOK 23/11 Q1023 NOSIG
  • 210830Z AUTO 00000KT CAVOK 22/11 Q1023 BECMG 07010KT
  • 210800Z AUTO VRB01KT CAVOK 20/12 Q1023 NOSIG
  • 210730Z AUTO 00000KT CAVOK 18/12 Q1023 BECMG 07010KT

TAF TAF LFBI
Valide du 21 à 06h jusqu'au 22 à 06h UTC


210500Z 2106/2206 VRB02KT CAVOK
BECMG 2109/2111 07010KT
Pas de NOTAMs connus pour ce terrain.



MET'MAP, la Météo Aéronautique d'un coup d'oeil ! - Copyright ORBIFLY Décembre 2007 - Disclaimer

ORBIFLY MET'MAP TEAM :

Programmation & Développement : Alexandra Zaïnal
Conception & Développement : Baudouin d'Aumeries
Co-Programmation & Développement : Marc-Olivier Méhu
Soutien technique & logistique : Manuel Goepfert

Contact : metmap@orbifly.com




SOURCES & CREDITS :

   NOAA